createdAt,value
2022-10-19T03:02:13.633Z,59.47
2022-10-19T03:04:41.760Z,41.33
2022-10-19T03:07:10.532Z,83.80
2022-10-19T03:09:37.563Z,36.57
2022-10-19T03:12:04.592Z,77.23
2022-10-19T03:14:31.485Z,60.40
2022-10-19T03:16:58.440Z,62.70
2022-10-19T03:19:26.766Z,41.13
2022-10-19T03:21:53.691Z,58.77
2022-10-19T03:24:20.786Z,52.90
2022-10-19T03:26:47.799Z,59.67
2022-10-19T03:29:14.841Z,62.10
2022-10-19T03:31:41.828Z,53.80
2022-10-19T03:34:08.712Z,37.13
2022-10-19T03:36:38.398Z,70.37
2022-10-19T03:39:08.205Z,28.03
2022-10-19T03:41:36.941Z,65.07
2022-10-19T03:44:04.505Z,29.63
2022-10-19T03:46:31.451Z,28.47
2022-10-19T03:48:58.371Z,37.37
2022-10-19T03:51:27.189Z,33.97
2022-10-19T03:53:57.893Z,43.20
2022-10-19T03:56:26.815Z,31.47
2022-10-19T03:58:56.417Z,64.90
2022-10-19T04:01:25.783Z,50.10
2022-10-19T04:03:53.868Z,42.60
2022-10-19T04:06:23.949Z,45.40
2022-10-19T04:08:51.070Z,37.90
2022-10-19T04:11:22.818Z,34.60
2022-10-19T04:13:50.549Z,43.73
2022-10-19T04:16:17.857Z,38.30
2022-10-19T04:18:44.975Z,34.43
2022-10-19T04:21:22.201Z,37.47
2022-10-19T04:23:49.538Z,35.70
2022-10-19T04:26:16.373Z,66.93
2022-10-19T04:28:44.777Z,52.03
2022-10-19T04:31:12.731Z,47.53
2022-10-19T04:33:40.530Z,37.07
2022-10-19T04:36:09.522Z,35.90
2022-10-19T04:38:36.968Z,32.53
2022-10-19T04:41:04.691Z,31.70
2022-10-19T04:43:31.783Z,46.07
2022-10-19T04:46:04.658Z,50.00
2022-10-19T04:48:32.212Z,36.43
2022-10-19T04:50:59.062Z,39.30
2022-10-19T04:53:26.203Z,70.33
2022-10-19T04:55:53.208Z,33.20
2022-10-19T04:58:20.119Z,111.20
2022-10-19T05:00:47.312Z,41.73
2022-10-19T05:03:16.185Z,109.37
2022-10-19T05:05:43.101Z,73.80
2022-10-19T05:08:10.615Z,52.10
2022-10-19T05:10:38.157Z,74.83
2022-10-19T05:13:05.750Z,68.83
2022-10-19T05:15:32.670Z,69.57
2022-10-19T05:17:59.767Z,47.47
2022-10-19T05:20:28.175Z,67.57
2022-10-19T05:22:55.052Z,108.60
2022-10-19T05:25:22.019Z,35.63
2022-10-19T05:27:52.437Z,35.03
2022-10-19T05:30:19.891Z,33.53
2022-10-19T05:32:46.801Z,33.37
2022-10-19T05:35:16.390Z,31.23
2022-10-19T05:37:47.040Z,36.00
2022-10-19T05:40:14.067Z,36.60
2022-10-19T05:42:40.968Z,37.43
2022-10-19T05:45:08.358Z,39.57
2022-10-19T05:47:35.748Z,35.80
2022-10-19T05:50:02.926Z,36.73
2022-10-19T05:52:29.859Z,36.23
2022-10-19T05:54:58.395Z,35.40
2022-10-19T05:57:25.818Z,41.93
2022-10-19T05:59:52.733Z,37.23
2022-10-19T06:02:19.609Z,32.23
2022-10-19T06:04:46.502Z,55.90
2022-10-19T06:07:13.404Z,63.67
2022-10-19T06:09:40.359Z,98.53
2022-10-19T06:12:08.618Z,56.37
2022-10-19T06:14:35.540Z,90.47
2022-10-19T06:17:02.484Z,37.23
2022-10-19T06:19:29.379Z,59.37
2022-10-19T06:21:56.205Z,49.17
2022-10-19T06:24:23.106Z,52.53
2022-10-19T06:26:49.966Z,48.33
2022-10-19T06:29:18.245Z,20.43
2022-10-19T06:31:46.374Z,26.10
2022-10-19T06:34:13.376Z,28.10
2022-10-19T06:36:40.378Z,21.77
2022-10-19T06:39:07.355Z,17.97
2022-10-19T06:41:34.649Z,16.83
2022-10-19T06:44:19.587Z,17.90
2022-10-19T06:46:46.518Z,25.63
2022-10-19T06:49:14.363Z,18.30
2022-10-19T06:51:41.406Z,26.90
2022-10-19T06:54:08.478Z,22.60
2022-10-19T06:56:35.439Z,24.93
2022-10-19T06:59:02.450Z,18.63
2022-10-19T07:01:30.929Z,30.53
2022-10-19T07:03:57.855Z,17.83
2022-10-19T07:06:28.507Z,16.90
2022-10-19T07:08:55.410Z,16.67
2022-10-19T07:11:22.662Z,18.47
2022-10-19T07:13:51.795Z,16.90
2022-10-19T07:16:21.235Z,15.73
2022-10-19T07:18:51.411Z,18.53
2022-10-19T07:21:20.003Z,16.07
2022-10-19T07:23:47.536Z,16.13
2022-10-19T07:26:16.493Z,17.90
2022-10-19T07:28:46.141Z,20.33
2022-10-19T07:31:15.238Z,21.37
2022-10-19T07:33:42.200Z,17.43
2022-10-19T07:36:11.305Z,16.77
2022-10-19T07:38:38.160Z,17.23
2022-10-19T07:41:06.842Z,18.67
2022-10-19T07:43:33.972Z,17.37
2022-10-19T07:46:02.765Z,17.47
2022-10-19T07:48:29.930Z,17.20
2022-10-19T07:50:56.790Z,16.73
2022-10-19T07:53:25.337Z,13.20
2022-10-19T07:55:52.215Z,16.23
2022-10-19T07:58:19.520Z,15.03
2022-10-19T08:00:46.688Z,16.43
2022-10-19T08:06:01.258Z,15.40
2022-10-19T08:08:29.884Z,15.07
2022-10-19T08:10:57.467Z,17.37
2022-10-19T08:13:24.649Z,16.70
2022-10-19T08:15:51.565Z,14.23
2022-10-19T08:18:18.555Z,16.60
2022-10-19T08:20:45.648Z,16.63
2022-10-19T08:23:12.517Z,15.97
2022-10-19T08:25:40.777Z,14.63
2022-10-19T08:28:07.606Z,14.73
2022-10-19T08:30:34.896Z,14.43
2022-10-19T08:33:02.050Z,14.30
2022-10-19T08:35:30.288Z,15.83
2022-10-19T08:37:58.665Z,13.67
2022-10-19T08:40:28.344Z,14.07
2022-10-19T08:43:02.023Z,16.17
2022-10-19T08:48:23.938Z,14.97
2022-10-19T08:50:51.303Z,13.87
2022-10-19T08:53:24.399Z,12.30
2022-10-19T08:56:04.831Z,13.67
2022-10-19T08:58:51.211Z,14.27
2022-10-19T09:01:26.721Z,13.93
2022-10-19T09:03:58.978Z,13.63
2022-10-19T09:06:32.650Z,13.27
2022-10-19T09:08:59.759Z,13.63
2022-10-19T09:11:31.468Z,12.73
2022-10-19T09:14:06.553Z,13.27
2022-10-19T09:16:35.181Z,13.67
2022-10-19T09:19:03.054Z,12.60
2022-10-19T09:21:46.119Z,12.80
2022-10-19T09:24:28.768Z,11.40
2022-10-19T09:26:58.526Z,11.40
2022-10-19T09:29:32.150Z,9.40
2022-10-19T09:32:03.941Z,8.60
2022-10-19T09:34:34.735Z,9.80
2022-10-19T09:37:01.767Z,9.53
2022-10-19T09:39:30.391Z,9.80
2022-10-19T09:41:59.277Z,10.43
2022-10-19T09:44:28.052Z,9.93
2022-10-19T09:47:02.515Z,9.93
2022-10-19T09:49:41.866Z,11.67
2022-10-19T09:52:25.627Z,10.23
2022-10-19T09:55:01.732Z,9.67
2022-10-19T09:57:28.897Z,12.53
2022-10-19T09:59:57.157Z,9.13
2022-10-19T10:02:30.572Z,11.10
2022-10-19T10:05:05.620Z,12.13
2022-10-19T10:07:36.788Z,10.93
2022-10-19T10:10:10.891Z,9.33
2022-10-19T10:12:40.231Z,10.00
2022-10-19T10:15:15.772Z,7.90
2022-10-19T10:17:46.229Z,7.57
2022-10-19T10:20:24.149Z,9.17
2022-10-19T10:22:58.007Z,7.83
2022-10-19T10:25:29.015Z,7.33
2022-10-19T10:27:59.159Z,6.13
2022-10-19T10:30:32.452Z,5.37
2022-10-19T10:33:08.127Z,5.80
2022-10-19T10:35:53.483Z,4.10
2022-10-19T10:38:24.649Z,4.40
2022-10-19T10:40:53.351Z,3.40
2022-10-19T10:43:25.222Z,3.53
2022-10-19T10:45:54.667Z,3.80
2022-10-19T10:48:28.602Z,4.10
2022-10-19T10:50:56.122Z,3.43
2022-10-19T10:53:34.651Z,3.10
2022-10-19T10:56:02.164Z,4.30
2022-10-19T10:58:37.166Z,4.93
2022-10-19T11:01:13.277Z,4.10
2022-10-19T11:03:46.399Z,4.90
2022-10-19T11:06:14.477Z,4.60
2022-10-19T11:08:47.948Z,4.77
2022-10-19T11:11:17.777Z,4.87
2022-10-19T11:13:49.809Z,4.47
2022-10-19T11:16:19.722Z,3.93
2022-10-19T11:18:50.504Z,4.40
2022-10-19T11:21:24.587Z,5.20
2022-10-19T11:24:05.005Z,5.50
2022-10-19T11:26:56.406Z,5.90
2022-10-19T11:29:41.698Z,5.47
2022-10-19T11:32:20.123Z,5.37
2022-10-19T11:34:57.735Z,5.57
2022-10-19T11:37:32.268Z,5.30
2022-10-19T11:40:08.268Z,5.27
2022-10-19T11:45:30.004Z,5.13
2022-10-19T11:48:17.385Z,5.40
2022-10-19T11:50:54.511Z,5.37
2022-10-19T11:53:34.950Z,5.17
2022-10-19T11:56:08.099Z,4.87
2022-10-19T11:58:48.464Z,5.93
2022-10-19T12:01:29.386Z,7.53
2022-10-19T12:04:21.264Z,7.47
2022-10-19T12:06:56.156Z,6.83
2022-10-19T12:09:38.360Z,5.87
2022-10-19T12:12:23.734Z,7.83
2022-10-19T12:14:53.605Z,6.67
2022-10-19T12:17:29.056Z,7.30
2022-10-19T12:20:02.123Z,6.03
2022-10-19T12:22:30.811Z,7.43
2022-10-19T12:25:00.860Z,6.83
2022-10-19T12:27:32.705Z,7.83
2022-10-19T12:30:05.114Z,7.97
2022-10-19T12:32:38.514Z,8.07
2022-10-19T12:35:21.180Z,7.17
2022-10-19T12:37:54.913Z,8.30
2022-10-19T12:40:28.820Z,8.27
2022-10-19T12:43:03.604Z,7.47
2022-10-19T12:45:32.994Z,8.83
2022-10-19T12:48:20.762Z,7.50
2022-10-19T12:51:13.243Z,7.90
2022-10-19T12:53:42.826Z,7.67
2022-10-19T12:56:15.785Z,5.90
2022-10-19T12:58:52.883Z,6.07
2022-10-19T13:01:23.684Z,6.53
2022-10-19T13:03:54.713Z,7.30
2022-10-19T13:06:34.202Z,7.50
2022-10-19T13:09:04.061Z,7.63
2022-10-19T13:11:31.580Z,8.93
2022-10-19T13:14:04.828Z,8.10
2022-10-19T13:16:57.194Z,6.90
2022-10-19T13:19:24.907Z,7.57
2022-10-19T13:22:09.884Z,8.83
2022-10-19T13:24:37.900Z,7.63
2022-10-19T13:27:35.035Z,6.80
2022-10-19T13:30:02.604Z,6.90
2022-10-19T13:32:39.117Z,7.90
2022-10-19T13:35:24.252Z,8.17
2022-10-19T13:38:26.717Z,7.90
2022-10-19T13:41:01.449Z,8.17
2022-10-19T13:43:31.751Z,8.27
2022-10-19T13:46:04.940Z,7.53
2022-10-19T13:48:55.927Z,6.90
2022-10-19T13:51:31.780Z,6.70
2022-10-19T13:54:08.824Z,6.83
2022-10-19T13:56:52.440Z,7.23
2022-10-19T13:59:45.818Z,6.37
2022-10-19T14:02:46.294Z,6.23
2022-10-19T14:08:24.421Z,6.20
2022-10-19T14:11:01.010Z,7.40
2022-10-19T14:13:29.251Z,6.63
2022-10-19T14:15:58.599Z,5.50
2022-10-19T14:18:28.063Z,5.97
2022-10-19T14:20:59.808Z,6.37
2022-10-19T14:23:28.267Z,6.40
2022-10-19T14:25:59.079Z,5.80
2022-10-19T14:28:26.644Z,7.03
2022-10-19T14:30:59.072Z,7.03
2022-10-19T14:33:27.525Z,7.77
2022-10-19T14:35:55.489Z,6.60
2022-10-19T14:38:27.729Z,6.33
2022-10-19T14:40:56.623Z,7.43
2022-10-19T14:43:25.663Z,7.27
2022-10-19T14:46:19.664Z,6.77
2022-10-19T14:48:48.924Z,7.27
2022-10-19T14:51:23.696Z,6.83
2022-10-19T14:53:54.696Z,5.70
2022-10-19T14:56:29.858Z,6.67
2022-10-19T14:59:00.738Z,6.13
2022-10-19T15:01:27.801Z,7.17
2022-10-19T15:03:55.442Z,6.97
2022-10-19T15:06:26.852Z,6.80
2022-10-19T15:08:56.477Z,9.27
2022-10-19T15:11:29.716Z,6.33
2022-10-19T15:14:03.631Z,6.77
2022-10-19T15:16:42.559Z,5.37
2022-10-19T15:19:19.260Z,6.20
2022-10-19T15:21:46.312Z,6.83
2022-10-19T15:24:26.018Z,6.47
2022-10-19T15:27:08.646Z,5.83
2022-10-19T15:29:36.660Z,5.80
2022-10-19T15:32:21.537Z,6.03
2022-10-19T15:34:48.522Z,7.37
2022-10-19T15:37:19.769Z,6.40
2022-10-19T15:39:48.004Z,6.67
2022-10-19T15:42:38.194Z,7.57
2022-10-19T15:45:34.109Z,6.23
2022-10-19T15:48:27.390Z,6.33
2022-10-19T15:50:55.488Z,6.87
2022-10-19T15:53:22.771Z,7.30
2022-10-19T15:55:49.745Z,8.03
2022-10-19T15:58:18.244Z,8.57
2022-10-19T16:00:45.161Z,7.40
2022-10-19T16:03:12.129Z,7.27
2022-10-19T16:05:39.188Z,6.90
2022-10-19T16:08:08.972Z,7.57
2022-10-19T16:10:38.677Z,7.97
2022-10-19T16:13:05.582Z,7.57
2022-10-19T16:15:33.872Z,8.67
2022-10-19T16:18:01.253Z,8.87
2022-10-19T16:20:29.982Z,7.63
2022-10-19T16:22:57.136Z,7.70
2022-10-19T16:25:24.195Z,7.83
2022-10-19T16:27:51.112Z,7.27
2022-10-19T16:30:18.174Z,7.70
2022-10-19T16:32:47.899Z,9.30
2022-10-19T16:35:15.082Z,7.90
2022-10-19T16:37:42.056Z,8.33
2022-10-19T16:40:10.105Z,8.50
2022-10-19T16:42:37.549Z,8.07
2022-10-19T16:45:05.121Z,14.83
2022-10-19T16:47:32.077Z,13.80
2022-10-19T16:50:01.758Z,20.30
2022-10-19T16:52:29.377Z,18.97
2022-10-19T16:54:57.235Z,21.97
2022-10-19T16:57:24.360Z,16.23
2022-10-19T17:02:23.879Z,15.93
2022-10-19T17:04:50.876Z,16.67
2022-10-19T17:07:19.388Z,15.23
2022-10-19T17:09:47.875Z,13.00
2022-10-19T17:12:17.583Z,12.57
2022-10-19T17:14:44.493Z,13.50
2022-10-19T17:17:11.546Z,11.30
2022-10-19T17:19:38.568Z,11.33
2022-10-19T17:22:05.589Z,11.37
2022-10-19T17:24:33.973Z,10.60
2022-10-19T17:27:03.315Z,10.97
2022-10-19T17:29:30.610Z,13.07
2022-10-19T17:31:57.883Z,9.00
2022-10-19T17:34:25.339Z,9.57
2022-10-19T17:36:52.311Z,8.97
2022-10-19T17:39:25.538Z,20.77
2022-10-19T17:42:01.618Z,13.20
2022-10-19T17:44:30.635Z,10.80
2022-10-19T17:46:57.741Z,12.20
2022-10-19T17:49:24.773Z,10.47
2022-10-19T17:51:53.674Z,12.63
2022-10-19T17:54:20.692Z,14.10
2022-10-19T17:56:47.691Z,14.27
2022-10-19T17:59:15.998Z,13.13
2022-10-19T18:01:43.078Z,11.67
2022-10-19T18:04:10.126Z,11.97
2022-10-19T18:06:37.908Z,11.33
2022-10-19T18:09:07.110Z,12.83
2022-10-19T18:11:37.177Z,13.03
2022-10-19T18:14:06.012Z,12.20
2022-10-19T18:16:35.974Z,11.67
2022-10-19T18:19:04.301Z,13.53
2022-10-19T18:21:33.636Z,12.00
2022-10-19T18:24:02.012Z,11.80
2022-10-19T18:26:31.606Z,10.97
2022-10-19T18:29:01.010Z,11.03
2022-10-19T18:31:29.582Z,11.13
2022-10-19T18:33:59.568Z,10.40
2022-10-19T18:36:27.074Z,11.17
2022-10-19T18:38:56.156Z,9.73
2022-10-19T18:41:23.367Z,9.93
2022-10-19T18:43:52.352Z,10.77
2022-10-19T18:46:20.579Z,11.13
2022-10-19T18:48:48.115Z,10.43
2022-10-19T18:51:17.751Z,9.03
2022-10-19T18:53:45.743Z,9.43
2022-10-19T18:56:14.342Z,9.70
2022-10-19T18:58:41.751Z,10.47
2022-10-19T19:01:11.054Z,11.17
2022-10-19T19:03:39.442Z,10.67
2022-10-19T19:06:08.240Z,9.27
2022-10-19T19:08:36.708Z,9.97
2022-10-19T19:11:10.579Z,11.30
2022-10-19T19:13:38.090Z,9.53
2022-10-19T19:16:05.704Z,10.43
2022-10-19T19:18:34.109Z,9.33
2022-10-19T19:21:01.413Z,11.90
2022-10-19T19:23:28.921Z,9.77
2022-10-19T19:25:57.467Z,10.07
2022-10-19T19:28:24.621Z,9.07
2022-10-19T19:30:51.582Z,10.07
2022-10-19T19:33:18.439Z,9.93
2022-10-19T19:35:46.432Z,10.50
2022-10-19T19:38:14.662Z,10.87
2022-10-19T19:40:42.742Z,10.50
2022-10-19T19:43:12.148Z,10.07
2022-10-19T19:45:39.299Z,12.47
2022-10-19T19:48:07.181Z,11.13
2022-10-19T19:50:34.945Z,11.73
2022-10-19T19:53:03.798Z,9.90
2022-10-19T19:55:36.760Z,10.97
2022-10-19T19:58:05.886Z,10.43
2022-10-19T20:00:34.160Z,9.63
2022-10-19T20:03:01.095Z,10.80
2022-10-19T20:05:28.409Z,11.40
2022-10-19T20:07:55.551Z,10.43
2022-10-19T20:10:22.578Z,12.47
2022-10-19T20:12:49.574Z,12.27
2022-10-19T20:15:17.756Z,11.27
2022-10-19T20:17:46.405Z,10.27
2022-10-19T20:20:15.781Z,11.10
2022-10-19T20:22:46.128Z,10.53
2022-10-19T20:25:13.009Z,10.97
2022-10-19T20:27:40.186Z,10.60
2022-10-19T20:30:08.435Z,10.50
2022-10-19T20:32:35.940Z,11.97
2022-10-19T20:35:04.912Z,12.83
2022-10-19T20:37:32.298Z,11.33
2022-10-19T20:39:59.200Z,12.40
2022-10-19T20:42:26.180Z,10.03
2022-10-19T20:44:54.720Z,11.93
2022-10-19T20:47:21.884Z,10.27
2022-10-19T20:49:48.784Z,10.90
2022-10-19T20:52:17.136Z,10.40
2022-10-19T20:54:44.049Z,10.97
2022-10-19T20:57:10.964Z,10.83
2022-10-19T20:59:38.792Z,11.07
2022-10-19T21:02:05.639Z,12.40
2022-10-19T21:04:32.499Z,11.90
2022-10-19T21:07:00.001Z,11.10
2022-10-19T21:09:28.214Z,10.60
2022-10-19T21:11:55.191Z,12.00
2022-10-19T21:14:26.995Z,10.53
2022-10-19T21:16:56.816Z,10.80
2022-10-19T21:19:25.665Z,11.60
2022-10-19T21:21:57.395Z,10.10
2022-10-19T21:24:26.622Z,15.33
2022-10-19T21:26:54.962Z,10.83
2022-10-19T21:29:21.896Z,10.57
2022-10-19T21:31:51.925Z,11.80
2022-10-19T21:34:20.694Z,12.23
2022-10-19T21:36:48.206Z,10.67
2022-10-19T21:39:15.547Z,10.00
2022-10-19T21:41:42.507Z,9.53
2022-10-19T21:44:10.803Z,10.10
2022-10-19T21:46:37.718Z,11.43
2022-10-19T21:49:04.786Z,10.07
2022-10-19T21:51:35.074Z,10.00
2022-10-19T21:54:02.641Z,9.87
2022-10-19T21:56:29.713Z,13.13
2022-10-19T21:58:56.746Z,9.63
2022-10-19T22:01:28.683Z,10.97
2022-10-19T22:03:56.146Z,10.57
2022-10-19T22:06:23.803Z,11.97
2022-10-19T22:08:50.922Z,10.90
2022-10-19T22:11:17.867Z,10.27
2022-10-19T22:13:44.879Z,11.53
2022-10-19T22:16:14.062Z,11.33
2022-10-19T22:18:42.946Z,11.53
2022-10-19T22:21:11.847Z,12.60
2022-10-19T22:23:39.034Z,10.33
2022-10-19T22:26:13.482Z,11.03
2022-10-19T22:28:40.405Z,11.43
2022-10-19T22:31:07.329Z,10.03
2022-10-19T22:33:35.220Z,10.53
2022-10-19T22:36:06.698Z,10.43
2022-10-19T22:38:34.373Z,11.43
2022-10-19T22:41:01.274Z,11.10
2022-10-19T22:43:28.178Z,10.03
2022-10-19T22:45:55.014Z,10.20
2022-10-19T22:48:21.981Z,11.70
2022-10-19T22:50:51.760Z,13.10
2022-10-19T22:53:21.490Z,10.00
2022-10-19T22:55:48.464Z,10.53
2022-10-19T22:58:15.702Z,9.90
